Raisinville Township, Michigan
Current Conditions -  °F | °C
As of 8:12 PM on Tuesday 21 Oct 2014 (Local Time) from KTTF Reporting Station
Overcast Overcast  
Wind Chill: 39°   Ceiling: 2300
Heat Index: 45°   Visibility: 10mi
Dew Point: 37°   Wind: 10mph
Humidity: 76%   Direction: 360°N
Pressure: 30.15"   Gusts: 20mph
Location:  41.9088°N, 83.4727°W
Report Text: KTTF 220012Z AUTO 36009G17KT 10SM OVC023 07/03 A3015 RMK AO2
Loading
Personal Weather Stations






























Interactive Weather Map
Tropical Storm Tracking
New forecast layout! Learn more

10-Day Weather Forecast

Advertisements
Track Severe Weather on mobile